Time;durP1;ratioP1;P1;durP2;ratioP2;P2;SDS_P1;SDS_P2;PMS_P1;PMS_P2;Temp;Humidity;BMP_temperature;BMP_pressure;BME280_temperature;BME280_humidity;BME280_pressure;Samples;Min_cycle;Max_cycle;Signal;HPM_P1;HPM_P2
2022/04/04 00:00:01;;;;;;;1999.90;999.90;;;;;;;-3.14;49.99;101240.28;4934483;28;98574;-73
2022/04/04 00:02:31;;;;;;;1999.90;999.90;;;;;;;-3.15;50.26;101222.88;4919363;28;98282;-73
2022/04/04 00:04:59;;;;;;;1999.90;999.90;;;;;;;-3.21;50.82;101217.16;4911541;28;98761;-73
2022/04/04 00:07:27;;;;;;;1999.90;999.90;;;;;;;-3.22;50.40;101220.53;4919334;28;98569;-73
2022/04/04 00:09:54;;;;;;;1999.90;999.90;;;;;;;-3.25;50.85;101221.19;4913101;28;97736;-73
2022/04/04 00:12:23;;;;;;;1999.90;999.90;;;;;;;-3.25;50.58;101213.38;4937947;28;97506;-73
2022/04/04 00:14:52;;;;;;;1999.90;999.90;;;;;;;-3.25;50.04;101223.78;4918806;28;98076;-73
2022/04/04 00:17:19;;;;;;;1999.90;999.90;;;;;;;-3.26;50.24;101208.06;4921315;28;97955;-73
2022/04/04 00:19:48;;;;;;;1999.90;999.90;;;;;;;-3.24;49.90;101206.50;4924460;28;96872;-73
2022/04/04 00:22:16;;;;;;;1999.90;999.90;;;;;;;-3.22;49.88;101210.13;4920386;28;97588;-73
2022/04/04 00:24:44;;;;;;;1999.90;999.90;;;;;;;-3.20;49.58;101208.56;4921242;28;97617;-73
2022/04/04 00:27:11;;;;;;;1999.90;999.90;;;;;;;-3.18;49.98;101207.88;4921216;28;97727;-73
2022/04/04 00:29:39;;;;;;;1999.90;999.90;;;;;;;-3.18;50.08;101213.09;4921426;28;96987;-73
2022/04/04 00:32:08;;;;;;;1999.90;999.90;;;;;;;-3.15;49.76;101208.13;4920681;28;97651;-73
2022/04/04 00:34:35;;;;;;;1999.90;999.90;;;;;;;-3.15;49.87;101208.13;4919433;28;97851;-73
2022/04/04 00:37:05;;;;;;;1999.90;999.90;;;;;;;-3.12;49.69;101207.50;4920154;28;98389;-73
2022/04/04 00:39:33;;;;;;;1999.90;999.90;;;;;;;-3.13;50.16;101208.28;4920585;28;98330;-73
2022/04/04 00:42:01;;;;;;;1999.90;999.90;;;;;;;-3.13;49.87;101210.88;4901492;28;96891;-72
2022/04/04 00:44:28;;;;;;;1999.90;999.90;;;;;;;-3.12;50.26;101200.59;4922218;28;98595;-72
2022/04/04 00:46:57;;;;;;;1999.90;999.90;;;;;;;-3.07;49.14;101200.97;4917134;28;99229;-73
2022/04/04 00:49:25;;;;;;;1999.90;999.90;;;;;;;-3.09;49.82;101197.31;4919913;28;97140;-72
2022/04/04 00:51:53;;;;;;;1999.90;999.90;;;;;;;-3.09;49.54;101202.53;4919994;28;97557;-72
2022/04/04 00:54:22;;;;;;;1999.90;999.90;;;;;;;-3.12;50.32;101199.69;4916711;28;98811;-72
2022/04/04 00:56:50;;;;;;;1999.90;999.90;;;;;;;-3.11;49.64;101198.91;4896041;28;98928;-73
2022/04/04 00:59:23;;;;;;;1999.90;999.90;;;;;;;-3.13;49.98;101195.28;4896439;28;98273;-73
2022/04/04 01:01:51;;;;;;;1999.90;999.90;;;;;;;-3.13;50.10;101187.47;4913674;28;99156;-73
2022/04/04 01:04:19;;;;;;;1999.90;999.90;;;;;;;-3.11;49.67;101191.09;4919748;28;99599;-73
2022/04/04 01:06:47;;;;;;;1999.90;999.90;;;;;;;-3.11;49.88;101185.91;4920432;28;98012;-73
2022/04/04 01:09:14;;;;;;;1999.90;999.90;;;;;;;-3.13;49.84;101185.75;4918396;28;97721;-74
2022/04/04 01:12:03;;;;;;;1999.90;999.90;;;;;;;-3.16;50.76;101182.00;4920426;28;97374;-73
2022/04/04 01:14:31;;;;;;;1999.90;999.90;;;;;;;-3.16;51.12;101174.19;4908695;28;99269;-73
2022/04/04 01:16:58;;;;;;;1999.90;999.90;;;;;;;-3.16;50.68;101174.19;4921091;28;98092;-73
2022/04/04 01:19:26;;;;;;;1999.90;999.90;;;;;;;-3.15;50.46;101166.50;4921935;28;97732;-73
2022/04/04 01:21:54;;;;;;;1999.90;999.90;;;;;;;-3.15;50.11;101161.28;4919737;28;97859;-73
2022/04/04 01:24:23;;;;;;;1999.90;999.90;;;;;;;-3.14;50.47;101177.81;4915973;28;99407;-74
2022/04/04 01:26:53;;;;;;;1999.90;999.90;;;;;;;-3.14;50.16;101170.00;4933511;28;97161;-74
2022/04/04 01:29:21;;;;;;;1999.90;999.90;;;;;;;-3.15;51.10;101178.63;4919800;28;97558;-73
2022/04/04 01:31:50;;;;;;;1999.90;999.90;;;;;;;-3.15;50.80;101170.81;4916857;28;97367;-73
2022/04/04 01:34:19;;;;;;;1999.90;999.90;;;;;;;-3.20;50.92;101162.63;4918417;28;98661;-73
2022/04/04 01:36:46;;;;;;;1999.90;999.90;;;;;;;-3.19;50.73;101169.66;4911482;28;97609;-73
2022/04/04 01:39:14;;;;;;;1999.90;999.90;;;;;;;-3.20;51.09;101174.75;4918846;28;96855;-73
2022/04/04 01:41:43;;;;;;;1999.90;999.90;;;;;;;-3.20;50.76;101161.72;4918233;28;98198;-74
2022/04/04 01:44:12;;;;;;;1999.90;999.90;;;;;;;-3.17;50.02;101156.75;4918438;28;98227;-73
2022/04/04 01:46:40;;;;;;;1999.90;999.90;;;;;;;-3.14;50.60;101151.78;4911949;28;98277;-74
2022/04/04 01:49:08;;;;;;;1999.90;999.90;;;;;;;-3.11;49.70;101146.88;4917744;28;97243;-74
2022/04/04 01:51:37;;;;;;;1999.90;999.90;;;;;;;-3.10;50.09;101140.84;4918064;28;96963;-73
2022/04/04 01:54:05;;;;;;;1999.90;999.90;;;;;;;-3.07;49.89;101138.50;4914860;28;97793;-73
2022/04/04 01:56:33;;;;;;;1999.90;999.90;;;;;;;-3.05;50.32;101131.72;4919752;28;100303;-73
2022/04/04 01:59:03;;;;;;;1999.90;999.90;;;;;;;-3.04;49.95;101128.34;4921095;28;96830;-73
2022/04/04 02:01:34;;;;;;;1999.90;999.90;;;;;;;-3.02;50.05;101127.66;4917159;28;97648;-73
2022/04/04 02:04:02;;;;;;;1999.90;999.90;;;;;;;-3.00;50.02;101125.19;4916336;28;98287;-73
2022/04/04 02:06:30;;;;;;;1999.90;999.90;;;;;;;-3.03;50.16;101114.53;4917106;28;97643;-72
2022/04/04 02:08:57;;;;;;;1999.90;999.90;;;;;;;-3.03;49.42;101115.44;4918710;28;97022;-72
2022/04/04 02:11:25;;;;;;;1999.90;999.90;;;;;;;-3.02;49.91;101111.16;4917745;28;99957;-73
2022/04/04 02:13:53;;;;;;;1999.90;999.90;;;;;;;-3.02;50.19;101103.34;4920187;28;99750;-73
2022/04/04 02:16:22;;;;;;;1999.90;999.90;;;;;;;-3.01;49.66;101110.34;4917550;28;99216;-73
2022/04/04 02:18:50;;;;;;;1999.90;999.90;;;;;;;-3.06;49.63;101114.28;4900321;28;97163;-72
2022/04/04 02:21:17;;;;;;;1999.90;999.90;;;;;;;-3.09;49.78;101108.81;4918745;28;97800;-73
2022/04/04 02:23:45;;;;;;;1999.90;999.90;;;;;;;-3.13;49.99;101102.47;4919910;28;97448;-72
2022/04/04 02:26:13;;;;;;;1999.90;999.90;;;;;;;-3.15;50.21;101097.94;4918453;28;101023;-73
2022/04/04 02:28:40;;;;;;;1999.90;999.90;;;;;;;-3.19;50.46;101095.88;4919817;28;96896;-73
2022/04/04 02:31:08;;;;;;;1999.90;999.90;;;;;;;-3.20;50.36;101091.47;4920755;28;97240;-73
2022/04/04 02:33:37;;;;;;;1999.90;999.90;;;;;;;-3.22;50.28;101090.44;4916352;28;99708;-72
2022/04/04 02:36:05;;;;;;;1999.90;999.90;;;;;;;-3.22;50.30;101088.72;4922160;28;98532;-73
2022/04/04 02:38:34;;;;;;;1999.90;999.90;;;;;;;-3.24;50.30;101086.81;4913236;28;96975;-73
2022/04/04 02:41:01;;;;;;;1999.90;999.90;;;;;;;-3.26;50.00;101077.97;4920423;28;99271;-73
2022/04/04 02:43:29;;;;;;;1999.90;999.90;;;;;;;-3.28;50.09;101067.44;4921319;28;99756;-74
2022/04/04 02:45:57;;;;;;;1999.90;999.90;;;;;;;-3.27;50.29;101064.03;4921782;28;97960;-72
2022/04/04 02:48:25;;;;;;;1999.90;999.90;;;;;;;-3.30;50.05;101061.19;4923312;28;97071;-73
2022/04/04 02:50:54;;;;;;;1999.90;999.90;;;;;;;-3.26;49.68;101059.75;4923136;28;97317;-72
2022/04/04 02:53:21;;;;;;;1999.90;999.90;;;;;;;-3.30;50.38;101057.69;4924320;28;97692;-73
2022/04/04 02:58:44;;;;;;;1999.90;999.90;;;;;;;-3.28;50.29;101054.44;4923099;28;97276;-72
2022/04/04 03:01:12;;;;;;;1999.90;999.90;;;;;;;-3.29;50.56;101046.47;4919876;28;97762;-74
2022/04/04 03:03:40;;;;;;;1999.90;999.90;;;;;;;-3.29;50.20;101044.78;4919263;28;99498;-73
2022/04/04 03:06:09;;;;;;;1999.90;999.90;;;;;;;-3.30;50.44;101045.59;4922426;28;98954;-73
2022/04/04 03:08:37;;;;;;;1999.90;999.90;;;;;;;-3.30;50.56;101036.88;4924063;28;97627;-73
2022/04/04 03:11:05;;;;;;;1999.90;999.90;;;;;;;-3.31;49.76;101032.47;4919608;28;96818;-73
2022/04/04 03:13:32;;;;;;;1999.90;999.90;;;;;;;-3.31;49.99;101027.25;4925742;28;99903;-73
2022/04/04 03:16:00;;;;;;;1999.90;999.90;;;;;;;-3.28;49.92;101027.50;4924159;28;97565;-73
2022/04/04 03:18:28;;;;;;;1999.90;999.90;;;;;;;-3.25;50.05;101018.22;4919220;28;98354;-73
2022/04/04 03:20:55;;;;;;;1999.90;999.90;;;;;;;-3.23;49.98;101008.84;4901503;28;98912;-73
2022/04/04 03:23:27;;;;;;;1999.90;999.90;;;;;;;-3.18;50.21;101012.72;4905085;28;99012;-70
2022/04/04 03:25:55;;;;;;;1999.90;999.90;;;;;;;-3.19;50.38;101016.13;4922234;28;97550;-69
2022/04/04 03:28:22;;;;;;;1999.90;999.90;;;;;;;-3.18;50.36;101002.31;4921706;28;97717;-71
2022/04/04 03:30:51;;;;;;;1999.90;999.90;;;;;;;-3.19;50.26;101003.13;4905346;28;98144;-70
2022/04/04 03:33:19;;;;;;;1999.90;999.90;;;;;;;-3.16;50.32;101005.94;4922031;28;97657;-71
2022/04/04 03:35:47;;;;;;;1999.90;999.90;;;;;;;-3.14;50.06;101006.06;4923946;28;97278;-71
2022/04/04 03:38:15;;;;;;;1999.90;999.90;;;;;;;-3.15;49.81;100988.66;4921384;28;97147;-71
2022/04/04 03:40:45;;;;;;;1999.90;999.90;;;;;;;-3.13;49.60;100990.56;4921954;28;96911;-70
2022/04/04 03:43:13;;;;;;;1999.90;999.90;;;;;;;-3.13;49.81;100989.69;4921755;28;99333;-71
2022/04/04 03:45:41;;;;;;;1999.90;999.90;;;;;;;-3.11;50.09;100980.31;4919777;28;97800;-71
2022/04/04 03:48:09;;;;;;;1999.90;999.90;;;;;;;-3.11;50.19;100986.38;4923473;28;97494;-70
2022/04/04 03:50:37;;;;;;;1999.90;999.90;;;;;;;-3.10;50.12;100979.50;4916093;28;97861;-70
2022/04/04 03:53:06;;;;;;;1999.90;999.90;;;;;;;-3.07;50.13;100987.53;4920464;28;97834;-70
2022/04/04 03:55:36;;;;;;;1999.90;999.90;;;;;;;-3.08;49.99;100973.63;4909850;28;99159;-70
2022/04/04 03:58:06;;;;;;;1999.90;999.90;;;;;;;-3.09;50.57;100974.41;4922232;28;100642;-71
2022/04/04 04:00:33;;;;;;;1999.90;999.90;;;;;;;-3.07;49.94;100966.72;4919144;28;97991;-71
2022/04/04 04:03:01;;;;;;;1999.90;999.90;;;;;;;-3.06;50.08;100959.06;4903687;28;99685;-71
2022/04/04 04:05:29;;;;;;;1999.90;999.90;;;;;;;-3.04;49.84;100956.56;4902719;28;98593;-72
2022/04/04 04:07:56;;;;;;;1999.90;999.90;;;;;;;-3.03;49.61;100948.88;4920548;28;97781;-71
2022/04/04 04:10:24;;;;;;;1999.90;999.90;;;;;;;-3.00;50.07;100948.19;4918958;28;97186;-71
2022/04/04 04:12:52;;;;;;;1999.90;999.90;;;;;;;-3.00;49.81;100948.19;4920731;28;98927;-71
2022/04/04 04:15:23;;;;;;;1999.90;999.90;;;;;;;-2.98;49.75;100937.09;4921389;28;98892;-71
2022/04/04 04:17:52;;;;;;;1999.90;999.90;;;;;;;-2.95;50.00;100941.66;4921453;28;97547;-71
2022/04/04 04:20:20;;;;;;;1999.90;999.90;;;;;;;-2.92;49.31;100928.84;4917283;28;97726;-70
2022/04/04 04:22:49;;;;;;;1999.90;999.90;;;;;;;-2.91;49.74;100923.75;4918341;28;99297;-70
2022/04/04 04:25:17;;;;;;;1999.90;999.90;;;;;;;-2.89;49.78;100923.88;4920372;28;98285;-70
2022/04/04 04:27:46;;;;;;;1999.90;999.90;;;;;;;-2.87;49.38;100912.81;4921295;28;97961;-70
2022/04/04 04:30:14;;;;;;;1999.90;999.90;;;;;;;-2.86;49.95;100912.03;4915396;28;97114;-70
2022/04/04 04:32:45;;;;;;;1999.90;999.90;;;;;;;-2.84;49.96;100919.94;4907692;28;98691;-70
2022/04/04 04:35:13;;;;;;;1999.90;999.90;;;;;;;-2.82;49.91;100907.97;4914199;28;100703;-70
2022/04/04 04:37:40;;;;;;;1999.90;999.90;;;;;;;-2.79;50.02;100910.78;4906748;28;97359;-71
2022/04/04 04:40:10;;;;;;;1999.90;999.90;;;;;;;-2.78;49.98;100907.38;4929080;28;97944;-71
2022/04/04 04:42:38;;;;;;;1999.90;999.90;;;;;;;-2.75;49.39;100899.81;4926968;28;97811;-71
2022/04/04 04:45:07;;;;;;;1999.90;999.90;;;;;;;-2.73;50.09;100897.31;4915563;28;98875;-71
2022/04/04 04:47:35;;;;;;;1999.90;999.90;;;;;;;-2.42;49.62;100897.13;4918780;28;96987;-70
2022/04/04 04:50:08;;;;;;;1999.90;999.90;;;;;;;-2.58;50.24;100890.66;4915629;28;98496;-71
2022/04/04 04:52:36;;;;;;;1999.90;999.90;;;;;;;-2.59;50.67;100894.97;4912590;28;99932;-70
2022/04/04 04:55:05;;;;;;;1999.90;999.90;;;;;;;-2.56;50.30;100895.19;4911944;28;99570;-70
2022/04/04 04:57:33;;;;;;;1999.90;999.90;;;;;;;-2.57;49.70;100882.97;4909135;28;97308;-71
2022/04/04 05:00:03;;;;;;;1999.90;999.90;;;;;;;-2.56;50.65;100882.16;4921053;28;97192;-70
2022/04/04 05:02:31;;;;;;;1999.90;999.90;;;;;;;-2.53;50.12;100882.41;4912698;28;98508;-70
2022/04/04 05:04:59;;;;;;;1999.90;999.90;;;;;;;-2.51;49.77;100880.78;4915796;28;97798;-70
2022/04/04 05:07:28;;;;;;;1999.90;999.90;;;;;;;-2.50;49.63;100882.63;4917652;28;97113;-70
2022/04/04 05:09:56;;;;;;;1999.90;999.90;;;;;;;-2.49;50.36;100878.34;4922162;28;97821;-70
2022/04/04 05:12:24;;;;;;;1999.90;999.90;;;;;;;-2.47;49.72;100869.81;4915347;28;100105;-71
2022/04/04 05:14:51;;;;;;;1999.90;999.90;;;;;;;-2.45;50.23;100870.84;4922099;28;97822;-70
2022/04/04 05:17:19;;;;;;;1999.90;999.90;;;;;;;-2.40;49.63;100868.59;4917927;28;97437;-71
2022/04/04 05:19:47;;;;;;;1999.90;999.90;;;;;;;-2.38;49.73;100862.66;4919523;28;97395;-71
2022/04/04 05:22:15;;;;;;;1999.90;999.90;;;;;;;-2.38;49.51;100862.66;4897609;28;101334;-70
2022/04/04 05:24:43;;;;;;;1999.90;999.90;;;;;;;-2.35;49.38;100862.00;4907113;28;99246;-71
2022/04/04 05:27:11;;;;;;;1999.90;999.90;;;;;;;-2.34;50.23;100851.69;4921934;28;97237;-71
2022/04/04 05:29:39;;;;;;;1999.90;999.90;;;;;;;-2.30;50.23;100853.72;4919768;28;97572;-72
2022/04/04 05:32:07;;;;;;;1999.90;999.90;;;;;;;-2.31;50.32;100851.91;4919121;28;97741;-71
2022/04/04 05:34:34;;;;;;;1999.90;999.90;;;;;;;-2.28;49.88;100844.31;4919647;28;97956;-71
2022/04/04 05:37:04;;;;;;;1999.90;999.90;;;;;;;-2.26;49.91;100839.22;4920281;28;97780;-71
2022/04/04 05:39:31;;;;;;;1999.90;999.90;;;;;;;-2.24;49.49;100835.94;4923155;28;97993;-71
2022/04/04 05:42:00;;;;;;;1999.90;999.90;;;;;;;-2.21;49.40;100837.84;4919747;28;96851;-71
2022/04/04 05:44:28;;;;;;;1999.90;999.90;;;;;;;-2.19;49.21;100833.66;4917948;28;98963;-71
2022/04/04 05:46:56;;;;;;;1999.90;999.90;;;;;;;-2.15;49.36;100833.13;4919986;28;97679;-71
2022/04/04 05:49:24;;;;;;;1999.90;999.90;;;;;;;-2.14;49.29;100830.63;4923402;28;97720;-71
2022/04/04 05:51:52;;;;;;;1999.90;999.90;;;;;;;-2.11;49.06;100832.56;4920643;28;98436;-71
2022/04/04 05:54:29;;;;;;;1999.90;999.90;;;;;;;-2.10;49.44;100824.84;4921688;28;97347;-71
2022/04/04 05:56:57;;;;;;;1999.90;999.90;;;;;;;-2.07;49.68;100827.66;4923521;28;96909;-71
2022/04/04 05:59:26;;;;;;;1999.90;999.90;;;;;;;-2.04;49.60;100829.59;4920630;28;97026;-71
2022/04/04 06:01:54;;;;;;;1999.90;999.90;;;;;;;-2.05;49.36;100826.06;4919920;28;96821;-71
2022/04/04 06:04:22;;;;;;;1999.90;999.90;;;;;;;-2.03;49.46;100821.88;4920456;28;97610;-71
2022/04/04 06:06:49;;;;;;;1999.90;999.90;;;;;;;-2.01;48.83;100825.50;4903292;28;96980;-74
2022/04/04 06:09:17;;;;;;;1999.90;999.90;;;;;;;-1.99;48.71;100829.13;4923966;28;97088;-71
2022/04/04 06:11:45;;;;;;;1999.90;999.90;;;;;;;-1.97;49.25;100819.72;4922219;28;100537;-71
2022/04/04 06:14:12;;;;;;;1999.90;999.90;;;;;;;-1.95;49.50;100815.50;4925709;28;97162;-71
2022/04/04 06:16:42;;;;;;;1999.90;999.90;;;;;;;-1.93;48.62;100808.72;4925808;28;98955;-72
2022/04/04 06:19:16;;;;;;;1999.90;999.90;;;;;;;-1.91;48.83;100822.72;4907913;28;97185;-72
2022/04/04 06:21:45;;;;;;;1999.90;999.90;;;;;;;-1.87;49.19;100795.19;4923135;28;96761;-71
2022/04/04 06:24:12;;;;;;;1999.90;999.90;;;;;;;-1.83;49.20;100801.53;4925016;28;99042;-72
2022/04/04 06:26:41;;;;;;;1999.90;999.90;;;;;;;-1.81;49.28;100808.66;4914836;28;98071;-72
2022/04/04 06:29:09;;;;;;;1999.90;999.90;;;;;;;-1.77;49.13;100791.50;4920545;28;97284;-72
2022/04/04 06:31:38;;;;;;;1999.90;999.90;;;;;;;-1.74;48.99;100789.13;4918035;28;98017;-71
2022/04/04 06:34:08;;;;;;;1999.90;999.90;;;;;;;-1.70;48.99;100789.44;4920241;28;97240;-72
2022/04/04 06:36:37;;;;;;;1999.90;999.90;;;;;;;-1.67;49.11;100780.94;4921529;28;97698;-72
2022/04/04 06:39:05;;;;;;;1999.90;999.90;;;;;;;-1.62;49.00;100784.75;4922868;28;96737;-72
2022/04/04 06:41:33;;;;;;;1999.90;999.90;;;;;;;-1.61;48.82;100768.28;4934695;28;99035;-72
2022/04/04 06:44:01;;;;;;;1999.90;999.90;;;;;;;-1.61;48.52;100765.69;4920993;28;99404;-72
2022/04/04 06:46:28;;;;;;;1999.90;999.90;;;;;;;-1.58;48.82;100761.63;4920709;28;97125;-72
2022/04/04 06:48:56;;;;;;;1999.90;999.90;;;;;;;-1.52;48.08;100758.53;4924847;28;97645;-72
2022/04/04 06:51:25;;;;;;;1999.90;999.90;;;;;;;-1.47;48.62;100758.00;4922301;28;98934;-72
2022/04/04 06:53:53;;;;;;;1999.90;999.90;;;;;;;-1.45;48.43;100748.56;4923358;28;96912;-72
2022/04/04 06:56:21;;;;;;;1999.90;999.90;;;;;;;-1.42;47.88;100743.59;4923615;28;96926;-73
2022/04/04 06:58:49;;;;;;;1999.90;999.90;;;;;;;-1.39;48.03;100751.63;4924270;28;96973;-72
2022/04/04 07:01:16;;;;;;;1999.90;999.90;;;;;;;-1.36;47.89;100732.66;4922778;28;97938;-72
2022/04/04 07:03:44;;;;;;;1999.90;999.90;;;;;;;-1.34;48.05;100728.47;4923141;28;99160;-72
2022/04/04 07:06:13;;;;;;;1999.90;999.90;;;;;;;-1.30;47.93;100725.22;4920918;28;98499;-72
2022/04/04 07:08:42;;;;;;;1999.90;999.90;;;;;;;-1.25;48.22;100716.03;4912285;28;98078;-72
2022/04/04 07:11:10;;;;;;;1999.90;999.90;;;;;;;-1.23;47.54;100714.41;4918028;28;100387;-72
2022/04/04 07:13:38;;;;;;;1999.90;999.90;;;;;;;-1.17;47.92;100706.97;4915280;28;98704;-71
2022/04/04 07:16:06;;;;;;;1999.90;999.90;;;;;;;-1.14;47.82;100709.81;4893495;28;97054;-72
2022/04/04 07:18:39;;;;;;;1999.90;999.90;;;;;;;-1.10;47.71;100702.25;4908141;28;97240;-72
2022/04/04 07:21:07;;;;;;;1999.90;999.90;;;;;;;-1.08;47.53;100705.88;4918556;28;99123;-72
2022/04/04 07:23:35;;;;;;;1999.90;999.90;;;;;;;-1.05;47.82;100697.34;4920557;28;97676;-72
2022/04/04 07:26:04;;;;;;;1999.90;999.90;;;;;;;-1.01;47.38;100695.03;4921647;28;97348;-71
2022/04/04 07:28:31;;;;;;;1999.90;999.90;;;;;;;-0.95;47.68;100694.53;4921360;28;97327;-72
2022/04/04 07:30:59;;;;;;;1999.90;999.90;;;;;;;-0.92;46.96;100685.19;4917630;28;99262;-71
2022/04/04 07:33:27;;;;;;;1999.90;999.90;;;;;;;-0.84;47.29;100680.47;4918250;28;98883;-73
2022/04/04 07:35:55;;;;;;;1999.90;999.90;;;;;;;-0.80;47.34;100677.25;4919273;28;99007;-73
2022/04/04 07:38:23;;;;;;;1999.90;999.90;;;;;;;-0.72;47.09;100670.78;4920073;28;97535;-73
2022/04/04 07:40:56;;;;;;;1999.90;999.90;;;;;;;-0.66;47.16;100668.56;4921652;28;98825;-73
2022/04/04 07:43:26;;;;;;;1999.90;999.90;;;;;;;-0.59;46.87;100655.09;4905891;28;99167;-73
2022/04/04 07:45:55;;;;;;;1999.90;999.90;;;;;;;-0.54;46.67;100643.25;4922742;28;97313;-74
2022/04/04 07:48:22;;;;;;;1999.90;999.90;;;;;;;-0.46;46.50;100646.31;4920015;28;97376;-72
2022/04/04 07:50:51;;;;;;;1999.90;999.90;;;;;;;-0.39;46.59;100641.56;4901643;28;99887;-72
2022/04/04 07:53:20;;;;;;;1999.90;999.90;;;;;;;-0.30;46.41;100636.91;4920921;28;98375;-72
2022/04/04 07:55:48;;;;;;;1999.90;999.90;;;;;;;-0.24;46.37;100637.28;4919836;28;97051;-73
2022/04/04 07:58:17;;;;;;;1999.90;999.90;;;;;;;-0.17;45.95;100615.94;4893299;28;97145;-73
2022/04/04 08:00:47;;;;;;;1999.90;999.90;;;;;;;-0.10;46.15;100620.72;4921237;28;98566;-73
2022/04/04 08:03:15;;;;;;;1999.90;999.90;;;;;;;-0.02;46.17;100614.25;4902709;28;98661;-74
2022/04/04 08:05:43;;;;;;;1999.90;999.90;;;;;;;0.08;45.71;100613.97;4918886;28;98363;-73
2022/04/04 08:08:11;;;;;;;1999.90;999.90;;;;;;;0.14;45.71;100598.66;4922301;28;98376;-74
2022/04/04 08:10:39;;;;;;;1999.90;999.90;;;;;;;0.20;45.38;100621.69;4915883;28;100216;-74
2022/04/04 08:13:07;;;;;;;1999.90;999.90;;;;;;;0.25;45.64;100598.44;4905220;28;100486;-73
2022/04/04 08:15:35;;;;;;;1999.90;999.90;;;;;;;0.30;45.48;100617.94;4910081;28;97812;-73
2022/04/04 08:18:04;;;;;;;1999.90;999.90;;;;;;;0.33;45.29;100591.94;4891540;28;98081;-74
2022/04/04 08:20:32;;;;;;;1999.90;999.90;;;;;;;0.40;45.18;100589.78;4919266;28;99684;-74
2022/04/04 08:23:00;;;;;;;1999.90;999.90;;;;;;;0.46;45.00;100586.59;4910358;28;98775;-74
2022/04/04 08:25:28;;;;;;;1999.90;999.90;;;;;;;0.50;45.44;100604.31;4917526;28;96901;-73
2022/04/04 08:27:55;;;;;;;1999.90;999.90;;;;;;;0.53;45.17;100586.16;4932534;28;97077;-74
2022/04/04 08:30:23;;;;;;;1999.90;999.90;;;;;;;0.56;44.87;100591.56;4903793;28;100181;-75
2022/04/04 08:32:51;;;;;;;1999.90;999.90;;;;;;;0.59;45.11;100579.56;4921290;28;99068;-74
2022/04/04 08:35:21;;;;;;;1999.90;999.90;;;;;;;0.60;44.83;100563.03;4919075;28;96971;-74
2022/04/04 08:37:48;;;;;;;1999.90;999.90;;;;;;;0.61;44.44;100553.47;4920299;28;97023;-74
2022/04/04 08:40:18;;;;;;;1999.90;999.90;;;;;;;0.68;44.62;100555.63;4918976;28;97629;-73
2022/04/04 08:42:46;;;;;;;1999.90;999.90;;;;;;;0.75;44.34;100555.13;4912966;28;98037;-74
2022/04/04 08:45:14;;;;;;;1999.90;999.90;;;;;;;0.76;44.63;100543.84;4917726;28;96900;-73
2022/04/04 08:47:42;;;;;;;1999.90;999.90;;;;;;;0.81;44.49;100527.56;4918627;28;96974;-74
2022/04/04 08:50:11;;;;;;;1999.90;999.90;;;;;;;0.87;44.31;100524.38;4917336;28;96956;-74
2022/04/04 08:52:40;;;;;;;1999.90;999.90;;;;;;;0.92;44.47;100525.56;4920213;28;101212;-74
2022/04/04 08:55:09;;;;;;;1999.90;999.90;;;;;;;0.95;44.01;100510.91;4920254;28;99544;-74
2022/04/04 08:57:37;;;;;;;1999.90;999.90;;;;;;;0.97;43.96;100525.00;4922070;28;96893;-74
2022/04/04 09:00:06;;;;;;;1999.90;999.90;;;;;;;1.00;43.87;100508.53;4919705;28;99253;-73
2022/04/04 09:02:34;;;;;;;1999.90;999.90;;;;;;;1.04;43.88;100505.28;4934862;28;100622;-73
2022/04/04 09:05:04;;;;;;;1999.90;999.90;;;;;;;1.06;43.97;100495.78;4921529;28;97227;-73
2022/04/04 09:07:32;;;;;;;1999.90;999.90;;;;;;;1.07;43.88;100500.19;4921138;28;97028;-74
2022/04/04 09:10:01;;;;;;;1999.90;999.90;;;;;;;1.11;43.91;100496.91;4923657;28;98710;-74
2022/04/04 09:12:29;;;;;;;1999.90;999.90;;;;;;;1.16;43.18;100479.72;4920249;28;99342;-75
2022/04/04 09:14:58;;;;;;;1999.90;999.90;;;;;;;1.17;43.13;100484.16;4922012;28;97379;-74
2022/04/04 09:17:28;;;;;;;1999.90;999.90;;;;;;;1.14;42.95;100471.78;4920623;28;97380;-74
2022/04/04 09:19:57;;;;;;;1999.90;999.90;;;;;;;1.19;43.84;100458.94;4919464;28;99038;-74
2022/04/04 09:22:26;;;;;;;1999.90;999.90;;;;;;;1.25;43.08;100448.78;4917939;28;100632;-74
2022/04/04 09:24:56;;;;;;;1999.90;999.90;;;;;;;1.32;43.72;100450.91;4921989;28;97501;-74
2022/04/04 09:27:26;;;;;;;1999.90;999.90;;;;;;;1.36;43.21;100452.84;4921685;28;96943;-74
2022/04/04 09:29:56;;;;;;;1999.90;999.90;;;;;;;1.37;43.21;100433.69;4923271;28;98619;-74
2022/04/04 09:32:36;;;;;;;1999.90;999.90;;;;;;;1.40;42.89;100428.59;4917956;28;98700;-71
2022/04/04 09:35:11;;;;;;;1999.90;999.90;;;;;;;1.41;42.28;100435.66;4935357;28;96796;-71
2022/04/04 09:37:40;;;;;;;1999.90;999.90;;;;;;;1.45;42.79;100416.63;4920081;28;96935;-72
2022/04/04 09:40:11;;;;;;;1999.90;999.90;;;;;;;1.48;42.76;100416.81;4912799;28;99012;-70
2022/04/04 09:42:43;;;;;;;1999.90;999.90;;;;;;;1.45;42.65;100427.09;4916224;28;97910;-72
2022/04/04 09:45:13;;;;;;;1999.90;999.90;;;;;;;1.41;42.67;100425.19;4917810;28;96873;-70
2022/04/04 09:47:54;;;;;;;1999.90;999.90;;;;;;;1.33;42.25;100443.94;4919742;28;97806;-70
2022/04/04 09:50:41;;;;;;;1999.90;999.90;;;;;;;1.31;41.55;100403.63;4934759;28;97917;-70
2022/04/04 09:53:13;;;;;;;1999.90;999.90;;;;;;;1.29;42.82;100414.03;4916684;28;96821;-71
2022/04/04 09:55:43;;;;;;;1999.90;999.90;;;;;;;1.32;42.29;100394.97;4920729;28;97199;-72
2022/04/04 09:58:14;;;;;;;1999.90;999.90;;;;;;;1.33;42.24;100408.13;4915072;28;96991;-72
2022/04/04 10:00:44;;;;;;;1999.90;999.90;;;;;;;1.32;42.60;100380.16;4917151;28;99930;-71
2022/04/04 10:03:13;;;;;;;1999.90;999.90;;;;;;;1.27;42.30;100360.63;4917923;28;97173;-71
2022/04/04 10:05:43;;;;;;;1999.90;999.90;;;;;;;1.27;42.42;100392.09;4918574;28;97011;-71
2022/04/04 10:08:14;;;;;;;1999.90;999.90;;;;;;;1.19;42.36;100375.09;4934078;28;97944;-71
2022/04/04 10:10:42;;;;;;;1999.90;999.90;;;;;;;1.13;42.49;100359.94;4916312;28;99708;-70
2022/04/04 10:13:13;;;;;;;1999.90;999.90;;;;;;;1.08;42.75;100382.41;4918904;28;99138;-70
2022/04/04 10:15:41;;;;;;;1999.90;999.90;;;;;;;1.00;43.08;100351.34;4919228;28;96958;-70
2022/04/04 10:18:10;;;;;;;1999.90;999.90;;;;;;;0.96;42.92;100359.88;4919897;28;97834;-71
2022/04/04 10:20:38;;;;;;;1999.90;999.90;;;;;;;0.92;42.79;100352.69;4919008;28;99315;-70
2022/04/04 10:23:07;;;;;;;1999.90;999.90;;;;;;;0.83;42.98;100358.31;4920435;28;97609;-71
2022/04/04 10:25:35;;;;;;;1999.90;999.90;;;;;;;0.74;43.98;100367.44;4917950;28;97644;-71
2022/04/04 10:28:02;;;;;;;1999.90;999.90;;;;;;;0.63;44.92;100347.63;4902929;28;97166;-71
2022/04/04 10:30:35;;;;;;;1999.90;999.90;;;;;;;0.52;45.47;100333.06;4935102;28;100092;-71
2022/04/04 10:33:04;;;;;;;1999.90;999.90;;;;;;;0.47;44.30;100329.28;4918974;28;97886;-71
2022/04/04 10:35:33;;;;;;;1999.90;999.90;;;;;;;0.42;44.27;100313.34;4919798;28;97019;-70
2022/04/04 10:38:05;;;;;;;1999.90;999.90;;;;;;;0.40;44.17;100311.47;4908530;28;97837;-71
2022/04/04 10:40:34;;;;;;;1999.90;999.90;;;;;;;0.36;43.91;100322.59;4916389;28;102061;-70
2022/04/04 10:43:09;;;;;;;1999.90;999.90;;;;;;;0.27;45.16;100298.53;4917450;28;97688;-71
2022/04/04 10:45:52;;;;;;;1999.90;999.90;;;;;;;0.23;44.77;100291.31;4917858;28;97114;-71
2022/04/04 10:48:23;;;;;;;1999.90;999.90;;;;;;;0.21;44.49;100273.78;4909158;28;96988;-70
2022/04/04 10:50:52;;;;;;;1999.90;999.90;;;;;;;0.23;44.57;100291.31;4907873;28;98988;-69
2022/04/04 10:53:35;;;;;;;1999.90;999.90;;;;;;;0.14;44.45;100262.91;4914958;28;99771;-69
2022/04/04 10:56:05;;;;;;;1999.90;999.90;;;;;;;0.10;44.46;100259.25;4936877;28;97343;-69